sensor_id;sensor_type;location;lat;lon;timestamp;temperature;humidity
16313;DHT22;8265;52.622;13.296;2022-07-23T00:01:17;16.80;99.90
16313;DHT22;8265;52.622;13.296;2022-07-23T00:06:38;16.70;99.90
16313;DHT22;8265;52.622;13.296;2022-07-23T00:11:59;16.60;99.90
16313;DHT22;8265;52.622;13.296;2022-07-23T00:17:20;16.60;99.90
16313;DHT22;8265;52.622;13.296;2022-07-23T00:22:47;16.60;99.90
16313;DHT22;8265;52.622;13.296;2022-07-23T00:28:02;16.70;99.90
16313;DHT22;8265;52.622;13.296;2022-07-23T00:33:23;16.50;99.90
16313;DHT22;8265;52.622;13.296;2022-07-23T00:38:44;16.40;99.90
16313;DHT22;8265;52.622;13.296;2022-07-23T00:44:29;16.30;99.90
16313;DHT22;8265;52.622;13.296;2022-07-23T00:49:26;16.10;99.90
16313;DHT22;8265;52.622;13.296;2022-07-23T00:54:47;15.90;99.90
16313;DHT22;8265;52.622;13.296;2022-07-23T01:00:10;15.80;99.90
16313;DHT22;8265;52.622;13.296;2022-07-23T01:05:29;15.70;99.90
16313;DHT22;8265;52.622;13.296;2022-07-23T01:10:50;15.60;99.90
16313;DHT22;8265;52.622;13.296;2022-07-23T01:16:10;15.50;99.90
16313;DHT22;8265;52.622;13.296;2022-07-23T01:21:31;15.40;99.90
16313;DHT22;8265;52.622;13.296;2022-07-23T01:26:52;15.40;99.90
16313;DHT22;8265;52.622;13.296;2022-07-23T01:32:13;15.40;99.90
16313;DHT22;8265;52.622;13.296;2022-07-23T01:37:34;15.20;99.90
16313;DHT22;8265;52.622;13.296;2022-07-23T01:42:55;15.20;99.90
16313;DHT22;8265;52.622;13.296;2022-07-23T01:48:16;15.10;99.90
16313;DHT22;8265;52.622;13.296;2022-07-23T01:53:37;15.00;99.90
16313;DHT22;8265;52.622;13.296;2022-07-23T01:58:58;14.90;99.90
16313;DHT22;8265;52.622;13.296;2022-07-23T02:04:20;15.00;99.90
16313;DHT22;8265;52.622;13.296;2022-07-23T02:09:40;15.00;99.90
16313;DHT22;8265;52.622;13.296;2022-07-23T02:15:01;15.10;99.90
16313;DHT22;8265;52.622;13.296;2022-07-23T02:20:22;15.30;99.90
16313;DHT22;8265;52.622;13.296;2022-07-23T02:25:43;15.50;99.90
16313;DHT22;8265;52.622;13.296;2022-07-23T02:31:04;15.60;99.90
16313;DHT22;8265;52.622;13.296;2022-07-23T02:36:25;15.60;99.90
16313;DHT22;8265;52.622;13.296;2022-07-23T02:41:46;15.80;99.90
16313;DHT22;8265;52.622;13.296;2022-07-23T02:47:07;15.90;99.90
16313;DHT22;8265;52.622;13.296;2022-07-23T02:52:28;15.90;99.90
16313;DHT22;8265;52.622;13.296;2022-07-23T02:57:49;15.80;99.90
16313;DHT22;8265;52.622;13.296;2022-07-23T03:03:10;15.70;99.90
16313;DHT22;8265;52.622;13.296;2022-07-23T03:08:31;15.70;99.90
16313;DHT22;8265;52.622;13.296;2022-07-23T03:13:52;15.70;99.90
16313;DHT22;8265;52.622;13.296;2022-07-23T03:19:13;15.70;99.90
16313;DHT22;8265;52.622;13.296;2022-07-23T03:24:34;15.80;99.90
16313;DHT22;8265;52.622;13.296;2022-07-23T03:29:56;15.80;99.90
16313;DHT22;8265;52.622;13.296;2022-07-23T03:35:16;15.80;99.90
16313;DHT22;8265;52.622;13.296;2022-07-23T03:40:37;16.00;99.90
16313;DHT22;8265;52.622;13.296;2022-07-23T03:45:58;16.10;99.90
16313;DHT22;8265;52.622;13.296;2022-07-23T03:51:19;16.30;99.90
16313;DHT22;8265;52.622;13.296;2022-07-23T03:56:40;16.40;99.90
16313;DHT22;8265;52.622;13.296;2022-07-23T04:02:00;16.50;99.90
16313;DHT22;8265;52.622;13.296;2022-07-23T04:07:21;16.50;99.90
16313;DHT22;8265;52.622;13.296;2022-07-23T04:12:42;16.50;99.90
16313;DHT22;8265;52.622;13.296;2022-07-23T04:18:04;16.50;99.90
16313;DHT22;8265;52.622;13.296;2022-07-23T04:23:24;16.60;99.90
16313;DHT22;8265;52.622;13.296;2022-07-23T04:28:45;16.50;99.90
16313;DHT22;8265;52.622;13.296;2022-07-23T04:34:06;16.10;99.90
16313;DHT22;8265;52.622;13.296;2022-07-23T04:39:27;15.80;99.90
16313;DHT22;8265;52.622;13.296;2022-07-23T04:44:48;15.70;99.90
16313;DHT22;8265;52.622;13.296;2022-07-23T04:50:10;15.50;99.90
16313;DHT22;8265;52.622;13.296;2022-07-23T04:55:30;15.40;99.90
16313;DHT22;8265;52.622;13.296;2022-07-23T05:00:51;15.40;99.90
16313;DHT22;8265;52.622;13.296;2022-07-23T05:06:12;15.40;99.90
16313;DHT22;8265;52.622;13.296;2022-07-23T05:11:33;15.40;99.90
16313;DHT22;8265;52.622;13.296;2022-07-23T05:16:54;15.20;99.90
16313;DHT22;8265;52.622;13.296;2022-07-23T05:22:15;15.10;99.90
16313;DHT22;8265;52.622;13.296;2022-07-23T05:27:36;15.30;99.90
16313;DHT22;8265;52.622;13.296;2022-07-23T05:32:57;15.40;99.90
16313;DHT22;8265;52.622;13.296;2022-07-23T05:38:18;15.50;99.90
16313;DHT22;8265;52.622;13.296;2022-07-23T05:43:39;15.80;99.90
16313;DHT22;8265;52.622;13.296;2022-07-23T05:49:00;15.80;99.90
16313;DHT22;8265;52.622;13.296;2022-07-23T05:54:21;15.70;99.90
16313;DHT22;8265;52.622;13.296;2022-07-23T05:59:42;15.60;99.90
16313;DHT22;8265;52.622;13.296;2022-07-23T06:05:03;15.50;99.90
16313;DHT22;8265;52.622;13.296;2022-07-23T06:10:24;15.20;99.90
16313;DHT22;8265;52.622;13.296;2022-07-23T06:15:45;15.30;99.90
16313;DHT22;8265;52.622;13.296;2022-07-23T06:21:06;15.30;99.90
16313;DHT22;8265;52.622;13.296;2022-07-23T06:26:27;15.50;99.90
16313;DHT22;8265;52.622;13.296;2022-07-23T06:31:48;15.50;99.90
16313;DHT22;8265;52.622;13.296;2022-07-23T06:37:09;15.50;99.90
16313;DHT22;8265;52.622;13.296;2022-07-23T06:42:30;15.70;99.90
16313;DHT22;8265;52.622;13.296;2022-07-23T06:47:51;15.90;99.90
16313;DHT22;8265;52.622;13.296;2022-07-23T06:53:12;16.00;99.90
16313;DHT22;8265;52.622;13.296;2022-07-23T06:58:33;16.10;99.90
16313;DHT22;8265;52.622;13.296;2022-07-23T07:03:54;15.80;99.90
16313;DHT22;8265;52.622;13.296;2022-07-23T07:09:15;15.90;99.90
16313;DHT22;8265;52.622;13.296;2022-07-23T07:14:36;16.20;99.90
16313;DHT22;8265;52.622;13.296;2022-07-23T07:19:57;16.30;99.90
16313;DHT22;8265;52.622;13.296;2022-07-23T07:25:18;16.20;99.90
16313;DHT22;8265;52.622;13.296;2022-07-23T07:30:39;16.30;99.90
16313;DHT22;8265;52.622;13.296;2022-07-23T07:36:00;16.30;99.90
16313;DHT22;8265;52.622;13.296;2022-07-23T07:41:21;16.50;99.90
16313;DHT22;8265;52.622;13.296;2022-07-23T07:46:42;17.20;99.90
16313;DHT22;8265;52.622;13.296;2022-07-23T07:52:03;17.30;99.90
16313;DHT22;8265;52.622;13.296;2022-07-23T07:57:24;17.00;99.90
16313;DHT22;8265;52.622;13.296;2022-07-23T08:02:45;17.20;99.90
16313;DHT22;8265;52.622;13.296;2022-07-23T08:08:06;17.50;99.90
16313;DHT22;8265;52.622;13.296;2022-07-23T08:13:26;17.40;99.90
16313;DHT22;8265;52.622;13.296;2022-07-23T08:18:47;17.60;99.90
16313;DHT22;8265;52.622;13.296;2022-07-23T08:24:08;17.90;99.90
16313;DHT22;8265;52.622;13.296;2022-07-23T08:29:29;17.90;99.90
16313;DHT22;8265;52.622;13.296;2022-07-23T08:34:50;18.40;99.90
16313;DHT22;8265;52.622;13.296;2022-07-23T08:40:12;18.60;99.90
16313;DHT22;8265;52.622;13.296;2022-07-23T08:45:35;18.30;99.90
16313;DHT22;8265;52.622;13.296;2022-07-23T08:50:54;18.60;99.90
16313;DHT22;8265;52.622;13.296;2022-07-23T08:56:14;19.00;99.90
16313;DHT22;8265;52.622;13.296;2022-07-23T09:01:35;19.20;99.90
16313;DHT22;8265;52.622;13.296;2022-07-23T09:06:57;19.60;99.90
16313;DHT22;8265;52.622;13.296;2022-07-23T09:12:17;19.70;99.90
16313;DHT22;8265;52.622;13.296;2022-07-23T09:17:39;20.50;99.90
16313;DHT22;8265;52.622;13.296;2022-07-23T09:22:59;20.10;99.90
16313;DHT22;8265;52.622;13.296;2022-07-23T09:28:20;19.90;99.90
16313;DHT22;8265;52.622;13.296;2022-07-23T09:33:41;20.00;99.90
16313;DHT22;8265;52.622;13.296;2022-07-23T09:39:02;19.80;99.90
16313;DHT22;8265;52.622;13.296;2022-07-23T09:44:23;19.60;99.90
16313;DHT22;8265;52.622;13.296;2022-07-23T09:49:58;19.60;99.90
16313;DHT22;8265;52.622;13.296;2022-07-23T09:55:06;20.00;99.90
16313;DHT22;8265;52.622;13.296;2022-07-23T10:00:26;20.40;99.90
16313;DHT22;8265;52.622;13.296;2022-07-23T10:05:47;20.70;99.90
16313;DHT22;8265;52.622;13.296;2022-07-23T10:11:08;21.20;99.90
16313;DHT22;8265;52.622;13.296;2022-07-23T10:16:29;20.80;99.90
16313;DHT22;8265;52.622;13.296;2022-07-23T10:21:50;20.70;99.90
16313;DHT22;8265;52.622;13.296;2022-07-23T10:27:16;20.40;99.90
16313;DHT22;8265;52.622;13.296;2022-07-23T10:32:35;20.50;99.90
16313;DHT22;8265;52.622;13.296;2022-07-23T10:37:54;21.90;99.90
16313;DHT22;8265;52.622;13.296;2022-07-23T10:43:15;21.90;99.90
16313;DHT22;8265;52.622;13.296;2022-07-23T10:48:35;21.40;99.90
16313;DHT22;8265;52.622;13.296;2022-07-23T10:53:56;21.30;99.90
16313;DHT22;8265;52.622;13.296;2022-07-23T10:59:16;20.90;99.90
16313;DHT22;8265;52.622;13.296;2022-07-23T11:04:51;21.40;99.90
16313;DHT22;8265;52.622;13.296;2022-07-23T11:09:58;21.60;99.90
16313;DHT22;8265;52.622;13.296;2022-07-23T11:15:19;22.20;99.90
16313;DHT22;8265;52.622;13.296;2022-07-23T11:20:40;22.50;99.90
16313;DHT22;8265;52.622;13.296;2022-07-23T11:26:01;22.90;99.90
16313;DHT22;8265;52.622;13.296;2022-07-23T11:31:22;24.10;99.90
16313;DHT22;8265;52.622;13.296;2022-07-23T11:36:50;24.20;99.90
16313;DHT22;8265;52.622;13.296;2022-07-23T11:42:05;23.60;99.90
16313;DHT22;8265;52.622;13.296;2022-07-23T11:47:25;24.10;99.90
16313;DHT22;8265;52.622;13.296;2022-07-23T11:52:46;24.40;99.90
16313;DHT22;8265;52.622;13.296;2022-07-23T11:58:07;24.00;99.90
16313;DHT22;8265;52.622;13.296;2022-07-23T12:03:28;23.60;99.90
16313;DHT22;8265;52.622;13.296;2022-07-23T12:08:49;23.70;99.90
16313;DHT22;8265;52.622;13.296;2022-07-23T12:14:11;23.80;99.90
16313;DHT22;8265;52.622;13.296;2022-07-23T12:19:00;24.90;99.90
16313;DHT22;8265;52.622;13.296;2022-07-23T12:24:21;25.10;99.90
16313;DHT22;8265;52.622;13.296;2022-07-23T12:29:41;25.10;99.90
16313;DHT22;8265;52.622;13.296;2022-07-23T12:35:07;24.80;99.90
16313;DHT22;8265;52.622;13.296;2022-07-23T12:40:25;24.30;99.90
16313;DHT22;8265;52.622;13.296;2022-07-23T12:45:48;24.60;99.90
16313;DHT22;8265;52.622;13.296;2022-07-23T12:51:08;24.40;99.90
16313;DHT22;8265;52.622;13.296;2022-07-23T12:56:29;24.00;99.90
16313;DHT22;8265;52.622;13.296;2022-07-23T13:01:54;23.20;99.90
16313;DHT22;8265;52.622;13.296;2022-07-23T13:07:08;23.60;99.90
16313;DHT22;8265;52.622;13.296;2022-07-23T13:12:29;23.30;99.90
16313;DHT22;8265;52.622;13.296;2022-07-23T13:17:50;23.90;99.90
16313;DHT22;8265;52.622;13.296;2022-07-23T13:23:11;24.00;99.90
16313;DHT22;8265;52.622;13.296;2022-07-23T13:28:32;24.10;99.90
16313;DHT22;8265;52.622;13.296;2022-07-23T13:33:53;24.70;99.90
16313;DHT22;8265;52.622;13.296;2022-07-23T13:39:14;24.40;99.90
16313;DHT22;8265;52.622;13.296;2022-07-23T13:44:37;24.70;99.90
16313;DHT22;8265;52.622;13.296;2022-07-23T13:49:56;25.60;99.90
16313;DHT22;8265;52.622;13.296;2022-07-23T13:55:17;25.60;99.90
16313;DHT22;8265;52.622;13.296;2022-07-23T14:00:39;25.30;99.90
16313;DHT22;8265;52.622;13.296;2022-07-23T14:05:59;25.90;99.90
16313;DHT22;8265;52.622;13.296;2022-07-23T14:11:20;25.10;99.90
16313;DHT22;8265;52.622;13.296;2022-07-23T14:16:41;24.40;99.90
16313;DHT22;8265;52.622;13.296;2022-07-23T14:22:02;25.30;99.90
16313;DHT22;8265;52.622;13.296;2022-07-23T14:27:23;26.30;99.50
16313;DHT22;8265;52.622;13.296;2022-07-23T14:32:44;27.90;96.90
16313;DHT22;8265;52.622;13.296;2022-07-23T14:38:14;27.80;96.10
16313;DHT22;8265;52.622;13.296;2022-07-23T14:43:26;26.10;96.60
16313;DHT22;8265;52.622;13.296;2022-07-23T14:48:47;27.20;94.30
16313;DHT22;8265;52.622;13.296;2022-07-23T14:54:08;26.10;95.20
16313;DHT22;8265;52.622;13.296;2022-07-23T14:59:29;25.20;96.70
16313;DHT22;8265;52.622;13.296;2022-07-23T15:04:50;26.30;94.30
16313;DHT22;8265;52.622;13.296;2022-07-23T15:10:11;27.90;93.80
16313;DHT22;8265;52.622;13.296;2022-07-23T15:15:31;27.60;92.30
16313;DHT22;8265;52.622;13.296;2022-07-23T15:20:52;28.30;91.00
16313;DHT22;8265;52.622;13.296;2022-07-23T15:26:13;26.60;91.70
16313;DHT22;8265;52.622;13.296;2022-07-23T15:31:34;27.80;91.00
16313;DHT22;8265;52.622;13.296;2022-07-23T15:36:55;27.30;89.60
16313;DHT22;8265;52.622;13.296;2022-07-23T15:42:16;26.10;91.50
16313;DHT22;8265;52.622;13.296;2022-07-23T15:47:38;26.70;92.00
16313;DHT22;8265;52.622;13.296;2022-07-23T15:52:58;27.80;87.80
16313;DHT22;8265;52.622;13.296;2022-07-23T15:58:19;26.90;90.70
16313;DHT22;8265;52.622;13.296;2022-07-23T16:03:40;27.80;89.30
16313;DHT22;8265;52.622;13.296;2022-07-23T16:09:01;27.60;88.80
16313;DHT22;8265;52.622;13.296;2022-07-23T16:14:22;27.50;87.50
16313;DHT22;8265;52.622;13.296;2022-07-23T16:19:43;26.40;89.90
16313;DHT22;8265;52.622;13.296;2022-07-23T16:25:06;25.30;90.70
16313;DHT22;8265;52.622;13.296;2022-07-23T16:30:25;25.00;90.50
16313;DHT22;8265;52.622;13.296;2022-07-23T16:35:46;25.90;90.50
16313;DHT22;8265;52.622;13.296;2022-07-23T16:41:07;26.70;88.30
16313;DHT22;8265;52.622;13.296;2022-07-23T16:46:28;25.70;89.00
16313;DHT22;8265;52.622;13.296;2022-07-23T16:51:49;27.00;88.50
16313;DHT22;8265;52.622;13.296;2022-07-23T16:57:10;28.80;83.80
16313;DHT22;8265;52.622;13.296;2022-07-23T17:02:31;28.90;83.80
16313;DHT22;8265;52.622;13.296;2022-07-23T17:07:52;28.20;82.40
16313;DHT22;8265;52.622;13.296;2022-07-23T17:13:13;29.00;81.80
16313;DHT22;8265;52.622;13.296;2022-07-23T17:18:34;28.60;82.40
16313;DHT22;8265;52.622;13.296;2022-07-23T17:23:55;28.30;82.40
16313;DHT22;8265;52.622;13.296;2022-07-23T17:29:16;28.30;82.50
16313;DHT22;8265;52.622;13.296;2022-07-23T17:34:37;28.10;81.50
16313;DHT22;8265;52.622;13.296;2022-07-23T17:39:58;28.10;80.20
16313;DHT22;8265;52.622;13.296;2022-07-23T17:45:19;27.60;81.00
16313;DHT22;8265;52.622;13.296;2022-07-23T17:50:40;27.10;84.30
16313;DHT22;8265;52.622;13.296;2022-07-23T17:56:00;27.10;83.40
16313;DHT22;8265;52.622;13.296;2022-07-23T18:01:22;26.40;85.30
16313;DHT22;8265;52.622;13.296;2022-07-23T18:06:42;25.40;85.90
16313;DHT22;8265;52.622;13.296;2022-07-23T18:12:04;23.90;88.90
16313;DHT22;8265;52.622;13.296;2022-07-23T18:17:24;23.20;91.00
16313;DHT22;8265;52.622;13.296;2022-07-23T18:22:45;22.80;91.10
16313;DHT22;8265;52.622;13.296;2022-07-23T18:28:06;22.50;91.60
16313;DHT22;8265;52.622;13.296;2022-07-23T18:33:27;22.30;92.10
16313;DHT22;8265;52.622;13.296;2022-07-23T18:38:48;22.00;92.50
16313;DHT22;8265;52.622;13.296;2022-07-23T18:44:09;21.60;94.50
16313;DHT22;8265;52.622;13.296;2022-07-23T18:49:30;21.40;93.60
16313;DHT22;8265;52.622;13.296;2022-07-23T18:54:51;20.80;96.40
16313;DHT22;8265;52.622;13.296;2022-07-23T19:00:13;20.60;95.80
16313;DHT22;8265;52.622;13.296;2022-07-23T19:05:33;20.60;96.20
16313;DHT22;8265;52.622;13.296;2022-07-23T19:10:54;20.30;96.80
16313;DHT22;8265;52.622;13.296;2022-07-23T19:16:15;19.80;98.20
16313;DHT22;8265;52.622;13.296;2022-07-23T19:21:36;19.70;97.70
16313;DHT22;8265;52.622;13.296;2022-07-23T19:26:57;19.70;98.20
16313;DHT22;8265;52.622;13.296;2022-07-23T19:32:18;19.30;99.00
16313;DHT22;8265;52.622;13.296;2022-07-23T19:37:39;19.30;99.50
16313;DHT22;8265;52.622;13.296;2022-07-23T19:43:00;18.90;99.90
16313;DHT22;8265;52.622;13.296;2022-07-23T19:48:21;18.60;99.90
16313;DHT22;8265;52.622;13.296;2022-07-23T19:53:42;18.30;99.90
16313;DHT22;8265;52.622;13.296;2022-07-23T19:59:03;18.30;99.90
16313;DHT22;8265;52.622;13.296;2022-07-23T20:04:24;18.20;99.90
16313;DHT22;8265;52.622;13.296;2022-07-23T20:09:45;17.80;99.90
16313;DHT22;8265;52.622;13.296;2022-07-23T20:15:07;17.60;99.90
16313;DHT22;8265;52.622;13.296;2022-07-23T20:20:27;17.40;99.90
16313;DHT22;8265;52.622;13.296;2022-07-23T20:25:48;17.40;99.90
16313;DHT22;8265;52.622;13.296;2022-07-23T20:31:09;17.30;99.90
16313;DHT22;8265;52.622;13.296;2022-07-23T20:36:30;17.20;99.90
16313;DHT22;8265;52.622;13.296;2022-07-23T20:41:51;16.80;99.90
16313;DHT22;8265;52.622;13.296;2022-07-23T20:47:12;16.60;99.90
16313;DHT22;8265;52.622;13.296;2022-07-23T20:52:33;16.40;99.90
16313;DHT22;8265;52.622;13.296;2022-07-23T20:57:54;16.20;99.90
16313;DHT22;8265;52.622;13.296;2022-07-23T21:03:15;16.00;99.90
16313;DHT22;8265;52.622;13.296;2022-07-23T21:08:36;15.80;99.90
16313;DHT22;8265;52.622;13.296;2022-07-23T21:13:57;15.70;99.90
16313;DHT22;8265;52.622;13.296;2022-07-23T21:19:18;15.50;99.90
16313;DHT22;8265;52.622;13.296;2022-07-23T21:24:39;15.40;99.90
16313;DHT22;8265;52.622;13.296;2022-07-23T21:29:59;15.20;99.90
16313;DHT22;8265;52.622;13.296;2022-07-23T21:35:20;15.10;99.90
16313;DHT22;8265;52.622;13.296;2022-07-23T21:40:41;15.00;99.90
16313;DHT22;8265;52.622;13.296;2022-07-23T21:46:02;14.90;99.90
16313;DHT22;8265;52.622;13.296;2022-07-23T21:51:23;14.80;99.90
16313;DHT22;8265;52.622;13.296;2022-07-23T21:56:44;14.70;99.90
16313;DHT22;8265;52.622;13.296;2022-07-23T22:02:05;14.60;99.90
16313;DHT22;8265;52.622;13.296;2022-07-23T22:07:26;14.60;99.90
16313;DHT22;8265;52.622;13.296;2022-07-23T22:12:47;14.40;99.90
16313;DHT22;8265;52.622;13.296;2022-07-23T22:18:08;14.30;99.90
16313;DHT22;8265;52.622;13.296;2022-07-23T22:23:29;14.20;99.90
16313;DHT22;8265;52.622;13.296;2022-07-23T22:28:50;14.10;99.90
16313;DHT22;8265;52.622;13.296;2022-07-23T22:34:11;14.00;99.90
16313;DHT22;8265;52.622;13.296;2022-07-23T22:39:32;14.00;99.90
16313;DHT22;8265;52.622;13.296;2022-07-23T22:44:53;13.90;99.90
16313;DHT22;8265;52.622;13.296;2022-07-23T22:50:14;13.80;99.90
16313;DHT22;8265;52.622;13.296;2022-07-23T22:55:35;13.70;99.90
16313;DHT22;8265;52.622;13.296;2022-07-23T23:00:56;13.60;99.90
16313;DHT22;8265;52.622;13.296;2022-07-23T23:06:17;13.60;99.90
16313;DHT22;8265;52.622;13.296;2022-07-23T23:11:38;13.60;99.90
16313;DHT22;8265;52.622;13.296;2022-07-23T23:16:59;13.60;99.90
16313;DHT22;8265;52.622;13.296;2022-07-23T23:22:20;13.40;99.90
16313;DHT22;8265;52.622;13.296;2022-07-23T23:27:41;13.30;99.90
16313;DHT22;8265;52.622;13.296;2022-07-23T23:33:02;13.20;99.90
16313;DHT22;8265;52.622;13.296;2022-07-23T23:38:23;13.20;99.90
16313;DHT22;8265;52.622;13.296;2022-07-23T23:43:44;13.20;99.90
16313;DHT22;8265;52.622;13.296;2022-07-23T23:49:04;13.10;99.90
16313;DHT22;8265;52.622;13.296;2022-07-23T23:54:26;13.00;99.90
16313;DHT22;8265;52.622;13.296;2022-07-23T23:59:47;12.80;99.90
